sensor_id;sensor_type;location;lat;lon;timestamp;temperature;humidity
13072;DHT22;6602;58.934;11.166;2023-02-28T00:04:37;-1.00;99.90
13072;DHT22;6602;58.934;11.166;2023-02-28T00:09:53;-1.10;99.90
13072;DHT22;6602;58.934;11.166;2023-02-28T00:14:55;-1.10;99.90
13072;DHT22;6602;58.934;11.166;2023-02-28T00:20:06;-1.20;99.90
13072;DHT22;6602;58.934;11.166;2023-02-28T00:25:22;-1.20;99.90
13072;DHT22;6602;58.934;11.166;2023-02-28T00:30:42;-1.10;99.90
13072;DHT22;6602;58.934;11.166;2023-02-28T00:35:43;-1.20;99.90
13072;DHT22;6602;58.934;11.166;2023-02-28T00:40:54;-1.30;99.90
13072;DHT22;6602;58.934;11.166;2023-02-28T00:45:58;-1.30;99.90
13072;DHT22;6602;58.934;11.166;2023-02-28T00:51:01;-1.30;99.90
13072;DHT22;6602;58.934;11.166;2023-02-28T00:56:06;-1.20;99.90
13072;DHT22;6602;58.934;11.166;2023-02-28T01:01:10;-1.30;99.90
13072;DHT22;6602;58.934;11.166;2023-02-28T01:06:15;-1.30;99.90
13072;DHT22;6602;58.934;11.166;2023-02-28T01:11:17;-1.30;99.90
13072;DHT22;6602;58.934;11.166;2023-02-28T01:16:24;-1.40;99.90
13072;DHT22;6602;58.934;11.166;2023-02-28T01:21:28;-1.40;99.90
13072;DHT22;6602;58.934;11.166;2023-02-28T01:26:33;-1.40;99.90
13072;DHT22;6602;58.934;11.166;2023-02-28T01:31:36;-1.40;99.90
13072;DHT22;6602;58.934;11.166;2023-02-28T01:36:55;-1.40;99.90
13072;DHT22;6602;58.934;11.166;2023-02-28T01:42:18;-1.40;99.90
13072;DHT22;6602;58.934;11.166;2023-02-28T01:47:35;-1.40;99.90
13072;DHT22;6602;58.934;11.166;2023-02-28T01:52:57;-1.50;99.90
13072;DHT22;6602;58.934;11.166;2023-02-28T01:58:06;-1.40;99.90
13072;DHT22;6602;58.934;11.166;2023-02-28T02:03:29;-1.40;99.90
13072;DHT22;6602;58.934;11.166;2023-02-28T02:08:40;-1.50;99.90
13072;DHT22;6602;58.934;11.166;2023-02-28T02:25:30;-1.50;99.90
13072;DHT22;6602;58.934;11.166;2023-02-28T02:36:23;-1.50;99.90
13072;DHT22;6602;58.934;11.166;2023-02-28T02:41:52;-1.50;99.90
13072;DHT22;6602;58.934;11.166;2023-02-28T02:47:06;-1.60;99.90
13072;DHT22;6602;58.934;11.166;2023-02-28T02:52:17;-1.60;99.90
13072;DHT22;6602;58.934;11.166;2023-02-28T03:02:43;-1.70;99.90
13072;DHT22;6602;58.934;11.166;2023-02-28T03:07:46;-1.70;99.90
13072;DHT22;6602;58.934;11.166;2023-02-28T03:24:31;-1.70;99.90
13072;DHT22;6602;58.934;11.166;2023-02-28T03:29:43;-1.80;99.90
13072;DHT22;6602;58.934;11.166;2023-02-28T03:35:02;-1.70;99.90
13072;DHT22;6602;58.934;11.166;2023-02-28T03:40:13;-1.70;99.90
13072;DHT22;6602;58.934;11.166;2023-02-28T03:45:29;-1.80;99.90
13072;DHT22;6602;58.934;11.166;2023-02-28T03:50:48;-1.80;99.90
13072;DHT22;6602;58.934;11.166;2023-02-28T03:55:58;-1.80;99.90
13072;DHT22;6602;58.934;11.166;2023-02-28T04:01:20;-1.80;99.90
13072;DHT22;6602;58.934;11.166;2023-02-28T04:06:25;-1.80;99.90
13072;DHT22;6602;58.934;11.166;2023-02-28T04:11:32;-1.80;99.90
13072;DHT22;6602;58.934;11.166;2023-02-28T04:16:40;-1.80;99.90
13072;DHT22;6602;58.934;11.166;2023-02-28T04:21:44;-1.80;99.90
13072;DHT22;6602;58.934;11.166;2023-02-28T04:26:51;-1.80;99.90
13072;DHT22;6602;58.934;11.166;2023-02-28T04:31:57;-1.80;99.90
13072;DHT22;6602;58.934;11.166;2023-02-28T04:37:09;-1.70;99.90
13072;DHT22;6602;58.934;11.166;2023-02-28T04:42:12;-1.70;99.90
13072;DHT22;6602;58.934;11.166;2023-02-28T04:47:13;-1.80;99.90
13072;DHT22;6602;58.934;11.166;2023-02-28T04:52:17;-1.80;99.90
13072;DHT22;6602;58.934;11.166;2023-02-28T04:57:18;-1.80;99.90
13072;DHT22;6602;58.934;11.166;2023-02-28T05:02:21;-1.90;99.90
13072;DHT22;6602;58.934;11.166;2023-02-28T05:07:24;-2.00;99.90
13072;DHT22;6602;58.934;11.166;2023-02-28T05:12:28;-1.90;99.90
13072;DHT22;6602;58.934;11.166;2023-02-28T05:17:32;-2.00;99.90
13072;DHT22;6602;58.934;11.166;2023-02-28T05:22:39;-1.80;99.90
13072;DHT22;6602;58.934;11.166;2023-02-28T05:27:43;-1.80;99.90
13072;DHT22;6602;58.934;11.166;2023-02-28T05:32:50;-2.00;99.90
13072;DHT22;6602;58.934;11.166;2023-02-28T05:37:52;-1.90;99.90
13072;DHT22;6602;58.934;11.166;2023-02-28T05:43:20;-1.70;99.90
13072;DHT22;6602;58.934;11.166;2023-02-28T05:48:25;-1.80;99.90
13072;DHT22;6602;58.934;11.166;2023-02-28T05:53:26;-1.70;99.90
13072;DHT22;6602;58.934;11.166;2023-02-28T05:58:29;-1.70;99.90
13072;DHT22;6602;58.934;11.166;2023-02-28T06:03:36;-1.70;99.90
13072;DHT22;6602;58.934;11.166;2023-02-28T06:08:57;-1.70;99.90
13072;DHT22;6602;58.934;11.166;2023-02-28T06:14:00;-1.80;99.90
13072;DHT22;6602;58.934;11.166;2023-02-28T06:19:03;-1.60;99.90
13072;DHT22;6602;58.934;11.166;2023-02-28T06:24:04;-1.40;99.90
13072;DHT22;6602;58.934;11.166;2023-02-28T06:29:11;-1.50;99.90
13072;DHT22;6602;58.934;11.166;2023-02-28T06:34:18;-1.50;99.90
13072;DHT22;6602;58.934;11.166;2023-02-28T06:39:19;-1.50;99.90
13072;DHT22;6602;58.934;11.166;2023-02-28T06:44:20;-1.40;99.90
13072;DHT22;6602;58.934;11.166;2023-02-28T06:49:24;-1.50;99.90
13072;DHT22;6602;58.934;11.166;2023-02-28T06:54:25;-1.60;99.90
13072;DHT22;6602;58.934;11.166;2023-02-28T06:59:26;-1.40;99.90
13072;DHT22;6602;58.934;11.166;2023-02-28T07:04:33;-1.20;99.90
13072;DHT22;6602;58.934;11.166;2023-02-28T07:09:47;-0.90;99.90
13072;DHT22;6602;58.934;11.166;2023-02-28T07:14:48;-0.40;99.90
13072;DHT22;6602;58.934;11.166;2023-02-28T07:20:01;0.30;99.90
13072;DHT22;6602;58.934;11.166;2023-02-28T07:25:06;0.70;99.90
13072;DHT22;6602;58.934;11.166;2023-02-28T07:30:07;1.20;99.90
13072;DHT22;6602;58.934;11.166;2023-02-28T07:35:09;2.30;99.90
13072;DHT22;6602;58.934;11.166;2023-02-28T07:40:20;1.90;99.90
13072;DHT22;6602;58.934;11.166;2023-02-28T07:45:22;1.40;99.90
13072;DHT22;6602;58.934;11.166;2023-02-28T07:50:23;1.20;99.90
13072;DHT22;6602;58.934;11.166;2023-02-28T07:55:32;1.20;99.90
13072;DHT22;6602;58.934;11.166;2023-02-28T08:00:51;1.40;99.90
13072;DHT22;6602;58.934;11.166;2023-02-28T08:06:19;2.40;99.90
13072;DHT22;6602;58.934;11.166;2023-02-28T08:11:40;2.70;99.90
13072;DHT22;6602;58.934;11.166;2023-02-28T08:16:50;2.40;99.90
13072;DHT22;6602;58.934;11.166;2023-02-28T08:22:09;2.80;99.90
13072;DHT22;6602;58.934;11.166;2023-02-28T08:27:28;2.30;99.90
13072;DHT22;6602;58.934;11.166;2023-02-28T08:32:40;2.40;99.90
13072;DHT22;6602;58.934;11.166;2023-02-28T08:37:44;2.50;99.90
13072;DHT22;6602;58.934;11.166;2023-02-28T08:43:08;3.30;99.90
13072;DHT22;6602;58.934;11.166;2023-02-28T08:48:31;4.30;99.90
13072;DHT22;6602;58.934;11.166;2023-02-28T08:53:54;5.20;99.90
13072;DHT22;6602;58.934;11.166;2023-02-28T08:59:15;6.00;99.90
13072;DHT22;6602;58.934;11.166;2023-02-28T09:04:36;6.60;99.90
13072;DHT22;6602;58.934;11.166;2023-02-28T09:10:00;6.40;99.90
13072;DHT22;6602;58.934;11.166;2023-02-28T09:15:20;5.10;99.90
13072;DHT22;6602;58.934;11.166;2023-02-28T09:20:41;4.90;99.90
13072;DHT22;6602;58.934;11.166;2023-02-28T09:26:00;5.10;99.90
13072;DHT22;6602;58.934;11.166;2023-02-28T09:31:26;5.40;99.90
13072;DHT22;6602;58.934;11.166;2023-02-28T09:36:47;5.90;99.90
13072;DHT22;6602;58.934;11.166;2023-02-28T09:42:18;6.30;99.90
13072;DHT22;6602;58.934;11.166;2023-02-28T09:47:43;6.80;99.90
13072;DHT22;6602;58.934;11.166;2023-02-28T09:53:25;6.90;99.90
13072;DHT22;6602;58.934;11.166;2023-02-28T09:59:04;7.60;99.90
13072;DHT22;6602;58.934;11.166;2023-02-28T10:10:51;8.20;99.90
13072;DHT22;6602;58.934;11.166;2023-02-28T10:15:54;8.00;99.90
13072;DHT22;6602;58.934;11.166;2023-02-28T10:21:28;8.20;99.90
13072;DHT22;6602;58.934;11.166;2023-02-28T10:26:50;8.50;99.90
13072;DHT22;6602;58.934;11.166;2023-02-28T10:32:17;8.70;99.90
13072;DHT22;6602;58.934;11.166;2023-02-28T10:37:43;8.70;99.90
13072;DHT22;6602;58.934;11.166;2023-02-28T10:48:34;9.10;99.90
13072;DHT22;6602;58.934;11.166;2023-02-28T10:53:55;9.30;99.90
13072;DHT22;6602;58.934;11.166;2023-02-28T10:59:30;9.30;99.90
13072;DHT22;6602;58.934;11.166;2023-02-28T11:04:50;9.50;99.90
13072;DHT22;6602;58.934;11.166;2023-02-28T11:10:20;9.60;99.90
13072;DHT22;6602;58.934;11.166;2023-02-28T11:15:41;9.70;99.90
13072;DHT22;6602;58.934;11.166;2023-02-28T11:21:01;9.90;99.90
13072;DHT22;6602;58.934;11.166;2023-02-28T11:26:40;9.90;99.90
13072;DHT22;6602;58.934;11.166;2023-02-28T11:37:32;10.10;99.90
13072;DHT22;6602;58.934;11.166;2023-02-28T11:55:20;10.20;99.90
13072;DHT22;6602;58.934;11.166;2023-02-28T12:17:47;10.40;99.90
13072;DHT22;6602;58.934;11.166;2023-02-28T12:30:03;10.30;99.90
13072;DHT22;6602;58.934;11.166;2023-02-28T12:40:41;9.10;99.90
13072;DHT22;6602;58.934;11.166;2023-02-28T12:46:24;8.70;99.90
13072;DHT22;6602;58.934;11.166;2023-02-28T12:51:46;8.20;99.90
13072;DHT22;6602;58.934;11.166;2023-02-28T13:14:20;8.80;99.90
13072;DHT22;6602;58.934;11.166;2023-02-28T13:20:01;8.80;99.90
13072;DHT22;6602;58.934;11.166;2023-02-28T13:41:44;9.00;99.90
13072;DHT22;6602;58.934;11.166;2023-02-28T13:52:24;9.20;99.90
13072;DHT22;6602;58.934;11.166;2023-02-28T14:09:39;9.20;99.90
13072;DHT22;6602;58.934;11.166;2023-02-28T14:14:59;9.10;99.90
13072;DHT22;6602;58.934;11.166;2023-02-28T14:20:31;9.00;99.90
13072;DHT22;6602;58.934;11.166;2023-02-28T14:31:50;8.90;99.90
13072;DHT22;6602;58.934;11.166;2023-02-28T14:37:33;8.90;99.90
13072;DHT22;6602;58.934;11.166;2023-02-28T14:43:03;8.90;99.90
13072;DHT22;6602;58.934;11.166;2023-02-28T14:48:25;8.90;99.90
13072;DHT22;6602;58.934;11.166;2023-02-28T14:53:53;9.00;99.90
13072;DHT22;6602;58.934;11.166;2023-02-28T14:59:32;9.00;99.90
13072;DHT22;6602;58.934;11.166;2023-02-28T15:04:57;8.90;99.90
13072;DHT22;6602;58.934;11.166;2023-02-28T15:10:25;8.90;99.90
13072;DHT22;6602;58.934;11.166;2023-02-28T15:16:04;8.80;99.90
13072;DHT22;6602;58.934;11.166;2023-02-28T15:21:44;8.70;99.90
13072;DHT22;6602;58.934;11.166;2023-02-28T15:27:14;8.70;99.90
13072;DHT22;6602;58.934;11.166;2023-02-28T15:32:37;8.50;99.90
13072;DHT22;6602;58.934;11.166;2023-02-28T15:38:13;8.40;99.90
13072;DHT22;6602;58.934;11.166;2023-02-28T15:43:38;8.40;99.90
13072;DHT22;6602;58.934;11.166;2023-02-28T15:48:58;8.40;99.90
13072;DHT22;6602;58.934;11.166;2023-02-28T15:54:24;8.30;99.90
13072;DHT22;6602;58.934;11.166;2023-02-28T15:59:50;8.10;99.90
13072;DHT22;6602;58.934;11.166;2023-02-28T16:10:30;7.90;99.90
13072;DHT22;6602;58.934;11.166;2023-02-28T16:15:46;7.80;99.90
13072;DHT22;6602;58.934;11.166;2023-02-28T16:21:08;7.60;99.90
13072;DHT22;6602;58.934;11.166;2023-02-28T16:26:28;7.40;99.90
13072;DHT22;6602;58.934;11.166;2023-02-28T16:31:50;6.90;99.90
13072;DHT22;6602;58.934;11.166;2023-02-28T16:37:16;6.80;99.90
13072;DHT22;6602;58.934;11.166;2023-02-28T16:42:37;6.80;99.90
13072;DHT22;6602;58.934;11.166;2023-02-28T16:47:57;6.70;99.90
13072;DHT22;6602;58.934;11.166;2023-02-28T16:53:16;6.60;99.90
13072;DHT22;6602;58.934;11.166;2023-02-28T16:58:36;6.30;99.90
13072;DHT22;6602;58.934;11.166;2023-02-28T17:03:56;6.10;99.90
13072;DHT22;6602;58.934;11.166;2023-02-28T17:09:19;5.80;99.90
13072;DHT22;6602;58.934;11.166;2023-02-28T17:14:39;5.60;99.90
13072;DHT22;6602;58.934;11.166;2023-02-28T17:19:59;5.40;99.90
13072;DHT22;6602;58.934;11.166;2023-02-28T17:25:24;5.30;99.90
13072;DHT22;6602;58.934;11.166;2023-02-28T17:30:46;5.10;99.90
13072;DHT22;6602;58.934;11.166;2023-02-28T17:36:15;4.90;99.90
13072;DHT22;6602;58.934;11.166;2023-02-28T17:41:36;4.70;99.90
13072;DHT22;6602;58.934;11.166;2023-02-28T17:46:58;4.40;99.90
13072;DHT22;6602;58.934;11.166;2023-02-28T17:52:18;4.00;99.90
13072;DHT22;6602;58.934;11.166;2023-02-28T17:57:38;3.80;99.90
13072;DHT22;6602;58.934;11.166;2023-02-28T18:02:58;3.70;99.90
13072;DHT22;6602;58.934;11.166;2023-02-28T18:08:20;3.50;99.90
13072;DHT22;6602;58.934;11.166;2023-02-28T18:13:40;3.40;99.90
13072;DHT22;6602;58.934;11.166;2023-02-28T18:18:59;3.20;99.90
13072;DHT22;6602;58.934;11.166;2023-02-28T18:24:22;2.80;99.90
13072;DHT22;6602;58.934;11.166;2023-02-28T18:29:42;2.90;99.90
13072;DHT22;6602;58.934;11.166;2023-02-28T18:35:02;2.90;99.90
13072;DHT22;6602;58.934;11.166;2023-02-28T18:40:25;2.90;99.90
13072;DHT22;6602;58.934;11.166;2023-02-28T18:45:44;2.80;99.90
13072;DHT22;6602;58.934;11.166;2023-02-28T18:51:15;2.60;99.90
13072;DHT22;6602;58.934;11.166;2023-02-28T18:56:35;2.50;99.90
13072;DHT22;6602;58.934;11.166;2023-02-28T19:01:56;2.40;99.90
13072;DHT22;6602;58.934;11.166;2023-02-28T19:07:17;2.30;99.90
13072;DHT22;6602;58.934;11.166;2023-02-28T19:12:37;2.10;99.90
13072;DHT22;6602;58.934;11.166;2023-02-28T19:18:03;2.00;99.90
13072;DHT22;6602;58.934;11.166;2023-02-28T19:23:22;2.00;99.90
13072;DHT22;6602;58.934;11.166;2023-02-28T19:28:42;1.90;99.90
13072;DHT22;6602;58.934;11.166;2023-02-28T19:34:01;1.80;99.90
13072;DHT22;6602;58.934;11.166;2023-02-28T19:39:21;1.90;99.90
13072;DHT22;6602;58.934;11.166;2023-02-28T19:44:43;1.90;99.90
13072;DHT22;6602;58.934;11.166;2023-02-28T19:50:12;1.80;99.90
13072;DHT22;6602;58.934;11.166;2023-02-28T19:55:33;1.70;99.90
13072;DHT22;6602;58.934;11.166;2023-02-28T20:00:54;1.60;99.90
13072;DHT22;6602;58.934;11.166;2023-02-28T20:06:14;1.60;99.90
13072;DHT22;6602;58.934;11.166;2023-02-28T20:11:33;1.50;99.90
13072;DHT22;6602;58.934;11.166;2023-02-28T20:16:41;1.40;99.90
13072;DHT22;6602;58.934;11.166;2023-02-28T20:22:01;1.30;99.90
13072;DHT22;6602;58.934;11.166;2023-02-28T20:27:22;1.10;99.90
13072;DHT22;6602;58.934;11.166;2023-02-28T20:32:42;1.00;99.90
13072;DHT22;6602;58.934;11.166;2023-02-28T20:38:03;1.00;99.90
13072;DHT22;6602;58.934;11.166;2023-02-28T20:43:26;1.00;99.90
13072;DHT22;6602;58.934;11.166;2023-02-28T20:48:46;0.80;99.90
13072;DHT22;6602;58.934;11.166;2023-02-28T20:54:10;0.60;99.90
13072;DHT22;6602;58.934;11.166;2023-02-28T20:59:30;0.60;99.90
13072;DHT22;6602;58.934;11.166;2023-02-28T21:04:49;0.60;99.90
13072;DHT22;6602;58.934;11.166;2023-02-28T21:10:10;0.60;99.90
13072;DHT22;6602;58.934;11.166;2023-02-28T21:15:36;0.60;99.90
13072;DHT22;6602;58.934;11.166;2023-02-28T21:21:01;0.50;99.90
13072;DHT22;6602;58.934;11.166;2023-02-28T21:26:23;0.50;99.90
13072;DHT22;6602;58.934;11.166;2023-02-28T21:31:42;0.30;99.90
13072;DHT22;6602;58.934;11.166;2023-02-28T21:37:03;0.20;99.90
13072;DHT22;6602;58.934;11.166;2023-02-28T21:42:22;0.20;99.90
13072;DHT22;6602;58.934;11.166;2023-02-28T21:47:35;0.10;99.90
13072;DHT22;6602;58.934;11.166;2023-02-28T21:52:56;0.10;99.90
13072;DHT22;6602;58.934;11.166;2023-02-28T21:58:16;0.10;99.90
13072;DHT22;6602;58.934;11.166;2023-02-28T22:03:37;0.10;99.90
13072;DHT22;6602;58.934;11.166;2023-02-28T22:09:01;0.20;99.90
13072;DHT22;6602;58.934;11.166;2023-02-28T22:14:23;0.20;99.90
13072;DHT22;6602;58.934;11.166;2023-02-28T22:19:46;0.10;99.90
13072;DHT22;6602;58.934;11.166;2023-02-28T22:25:08;0.00;99.90
13072;DHT22;6602;58.934;11.166;2023-02-28T22:30:28;0.00;99.90
13072;DHT22;6602;58.934;11.166;2023-02-28T22:35:53;-0.10;99.90
13072;DHT22;6602;58.934;11.166;2023-02-28T22:41:14;-0.10;99.90
13072;DHT22;6602;58.934;11.166;2023-02-28T22:46:36;-0.20;99.90
13072;DHT22;6602;58.934;11.166;2023-02-28T22:51:56;-0.20;99.90
13072;DHT22;6602;58.934;11.166;2023-02-28T22:57:15;-0.20;99.90
13072;DHT22;6602;58.934;11.166;2023-02-28T23:02:37;-0.20;99.90
13072;DHT22;6602;58.934;11.166;2023-02-28T23:07:45;-0.30;99.90
13072;DHT22;6602;58.934;11.166;2023-02-28T23:13:07;-0.30;99.90
13072;DHT22;6602;58.934;11.166;2023-02-28T23:18:26;-0.30;99.90
13072;DHT22;6602;58.934;11.166;2023-02-28T23:23:47;-0.30;99.90
13072;DHT22;6602;58.934;11.166;2023-02-28T23:29:07;-0.30;99.90
13072;DHT22;6602;58.934;11.166;2023-02-28T23:34:15;-0.30;99.90
13072;DHT22;6602;58.934;11.166;2023-02-28T23:39:43;-0.30;99.90
13072;DHT22;6602;58.934;11.166;2023-02-28T23:44:48;-0.40;99.90
13072;DHT22;6602;58.934;11.166;2023-02-28T23:49:49;-0.30;99.90
13072;DHT22;6602;58.934;11.166;2023-02-28T23:55:09;-0.40;99.90
